sensor_id;sensor_type;location;lat;lon;timestamp;temperature;humidity
27439;DHT22;14887;51.252;7.470;2022-09-12T00:01:13;12.80;99.90
27439;DHT22;14887;51.252;7.470;2022-09-12T00:03:40;12.80;99.90
27439;DHT22;14887;51.252;7.470;2022-09-12T00:06:18;12.70;99.90
27439;DHT22;14887;51.252;7.470;2022-09-12T00:08:45;12.70;99.90
27439;DHT22;14887;51.252;7.470;2022-09-12T00:11:11;12.70;99.90
27439;DHT22;14887;51.252;7.470;2022-09-12T00:13:39;12.70;99.90
27439;DHT22;14887;51.252;7.470;2022-09-12T00:16:05;12.80;99.90
27439;DHT22;14887;51.252;7.470;2022-09-12T00:18:32;12.80;99.90
27439;DHT22;14887;51.252;7.470;2022-09-12T00:21:01;12.70;99.90
27439;DHT22;14887;51.252;7.470;2022-09-12T00:23:28;12.70;99.90
27439;DHT22;14887;51.252;7.470;2022-09-12T00:25:53;12.60;99.90
27439;DHT22;14887;51.252;7.470;2022-09-12T00:28:19;12.60;99.90
27439;DHT22;14887;51.252;7.470;2022-09-12T00:30:46;12.60;99.90
27439;DHT22;14887;51.252;7.470;2022-09-12T00:33:14;12.70;99.90
27439;DHT22;14887;51.252;7.470;2022-09-12T00:35:45;12.80;99.90
27439;DHT22;14887;51.252;7.470;2022-09-12T00:38:12;12.90;99.90
27439;DHT22;14887;51.252;7.470;2022-09-12T00:40:39;12.80;99.90
27439;DHT22;14887;51.252;7.470;2022-09-12T00:43:05;12.70;99.90
27439;DHT22;14887;51.252;7.470;2022-09-12T00:45:34;12.70;99.90
27439;DHT22;14887;51.252;7.470;2022-09-12T00:48:01;12.70;99.90
27439;DHT22;14887;51.252;7.470;2022-09-12T00:50:30;12.70;99.90
27439;DHT22;14887;51.252;7.470;2022-09-12T00:53:05;12.60;99.90
27439;DHT22;14887;51.252;7.470;2022-09-12T00:55:35;12.60;99.90
27439;DHT22;14887;51.252;7.470;2022-09-12T00:58:09;12.50;99.90
27439;DHT22;14887;51.252;7.470;2022-09-12T01:00:36;12.60;99.90
27439;DHT22;14887;51.252;7.470;2022-09-12T01:03:09;12.50;99.90
27439;DHT22;14887;51.252;7.470;2022-09-12T01:05:39;12.60;99.90
27439;DHT22;14887;51.252;7.470;2022-09-12T01:08:05;12.60;99.90
27439;DHT22;14887;51.252;7.470;2022-09-12T01:10:34;12.50;99.90
27439;DHT22;14887;51.252;7.470;2022-09-12T01:13:02;12.50;99.90
27439;DHT22;14887;51.252;7.470;2022-09-12T01:15:29;12.50;99.90
27439;DHT22;14887;51.252;7.470;2022-09-12T01:20:43;12.50;99.90
27439;DHT22;14887;51.252;7.470;2022-09-12T01:28:51;12.60;99.90
27439;DHT22;14887;51.252;7.470;2022-09-12T01:34:34;12.80;99.90
27439;DHT22;14887;51.252;7.470;2022-09-12T01:40:02;12.90;99.90
27439;DHT22;14887;51.252;7.470;2022-09-12T01:45:38;12.90;99.90
27439;DHT22;14887;51.252;7.470;2022-09-12T01:48:19;12.80;99.90
27439;DHT22;14887;51.252;7.470;2022-09-12T01:50:49;12.80;99.90
27439;DHT22;14887;51.252;7.470;2022-09-12T01:53:21;12.70;99.90
27439;DHT22;14887;51.252;7.470;2022-09-12T01:55:55;12.70;99.90
27439;DHT22;14887;51.252;7.470;2022-09-12T01:58:56;12.70;99.90
27439;DHT22;14887;51.252;7.470;2022-09-12T02:01:29;12.70;99.90
27439;DHT22;14887;51.252;7.470;2022-09-12T02:04:15;12.80;99.90
27439;DHT22;14887;51.252;7.470;2022-09-12T02:09:24;12.80;99.90
27439;DHT22;14887;51.252;7.470;2022-09-12T02:11:58;12.80;99.90
27439;DHT22;14887;51.252;7.470;2022-09-12T02:14:27;12.70;99.90
27439;DHT22;14887;51.252;7.470;2022-09-12T02:17:02;12.70;99.90
27439;DHT22;14887;51.252;7.470;2022-09-12T02:19:35;12.70;99.90
27439;DHT22;14887;51.252;7.470;2022-09-12T02:22:03;12.70;99.90
27439;DHT22;14887;51.252;7.470;2022-09-12T02:24:38;12.70;99.90
27439;DHT22;14887;51.252;7.470;2022-09-12T02:27:10;12.70;99.90
27439;DHT22;14887;51.252;7.470;2022-09-12T02:29:38;12.70;99.90
27439;DHT22;14887;51.252;7.470;2022-09-12T02:32:07;12.70;99.90
27439;DHT22;14887;51.252;7.470;2022-09-12T02:40:04;12.60;99.90
27439;DHT22;14887;51.252;7.470;2022-09-12T02:42:33;12.60;99.90
27439;DHT22;14887;51.252;7.470;2022-09-12T02:44:59;12.60;99.90
27439;DHT22;14887;51.252;7.470;2022-09-12T02:47:31;12.70;99.90
27439;DHT22;14887;51.252;7.470;2022-09-12T02:49:58;12.60;99.90
27439;DHT22;14887;51.252;7.470;2022-09-12T02:52:25;12.60;99.90
27439;DHT22;14887;51.252;7.470;2022-09-12T02:54:52;12.60;99.90
27439;DHT22;14887;51.252;7.470;2022-09-12T02:57:20;12.60;99.90
27439;DHT22;14887;51.252;7.470;2022-09-12T02:59:47;12.50;99.90
27439;DHT22;14887;51.252;7.470;2022-09-12T03:02:39;12.50;99.90
27439;DHT22;14887;51.252;7.470;2022-09-12T03:07:58;12.50;99.90
27439;DHT22;14887;51.252;7.470;2022-09-12T03:18:28;12.30;99.90
27439;DHT22;14887;51.252;7.470;2022-09-12T03:24:17;12.30;99.90
27439;DHT22;14887;51.252;7.470;2022-09-12T03:26:57;12.20;99.90
27439;DHT22;14887;51.252;7.470;2022-09-12T03:29:25;12.10;99.90
27439;DHT22;14887;51.252;7.470;2022-09-12T03:31:56;12.10;99.90
27439;DHT22;14887;51.252;7.470;2022-09-12T03:34:23;12.10;99.90
27439;DHT22;14887;51.252;7.470;2022-09-12T03:36:50;12.00;99.90
27439;DHT22;14887;51.252;7.470;2022-09-12T03:39:15;12.00;99.90
27439;DHT22;14887;51.252;7.470;2022-09-12T03:41:41;12.00;99.90
27439;DHT22;14887;51.252;7.470;2022-09-12T03:44:07;12.00;99.90
27439;DHT22;14887;51.252;7.470;2022-09-12T03:46:33;11.80;99.90
27439;DHT22;14887;51.252;7.470;2022-09-12T03:48:58;11.90;99.90
27439;DHT22;14887;51.252;7.470;2022-09-12T03:51:24;11.90;99.90
27439;DHT22;14887;51.252;7.470;2022-09-12T03:53:50;11.90;99.90
27439;DHT22;14887;51.252;7.470;2022-09-12T03:56:15;11.80;99.90
27439;DHT22;14887;51.252;7.470;2022-09-12T03:58:42;11.80;99.90
27439;DHT22;14887;51.252;7.470;2022-09-12T04:01:13;11.90;99.90
27439;DHT22;14887;51.252;7.470;2022-09-12T04:03:40;11.90;99.90
27439;DHT22;14887;51.252;7.470;2022-09-12T04:06:07;11.90;99.90
27439;DHT22;14887;51.252;7.470;2022-09-12T04:08:34;11.90;99.90
27439;DHT22;14887;51.252;7.470;2022-09-12T04:11:04;11.90;99.90
27439;DHT22;14887;51.252;7.470;2022-09-12T04:13:31;12.00;99.90
27439;DHT22;14887;51.252;7.470;2022-09-12T04:15:58;12.00;99.90
27439;DHT22;14887;51.252;7.470;2022-09-12T04:18:24;12.00;99.90
27439;DHT22;14887;51.252;7.470;2022-09-12T04:20:49;12.10;99.90
27439;DHT22;14887;51.252;7.470;2022-09-12T04:23:15;12.10;99.90
27439;DHT22;14887;51.252;7.470;2022-09-12T04:25:40;12.00;99.90
27439;DHT22;14887;51.252;7.470;2022-09-12T04:28:06;12.00;99.90
27439;DHT22;14887;51.252;7.470;2022-09-12T04:30:33;12.00;99.90
27439;DHT22;14887;51.252;7.470;2022-09-12T04:32:58;12.00;99.90
27439;DHT22;14887;51.252;7.470;2022-09-12T04:35:24;12.10;99.90
27439;DHT22;14887;51.252;7.470;2022-09-12T04:37:50;12.00;99.90
27439;DHT22;14887;51.252;7.470;2022-09-12T04:40:15;12.00;99.90
27439;DHT22;14887;51.252;7.470;2022-09-12T04:42:41;12.00;99.90
27439;DHT22;14887;51.252;7.470;2022-09-12T04:45:07;12.00;99.90
27439;DHT22;14887;51.252;7.470;2022-09-12T04:47:32;11.90;99.90
27439;DHT22;14887;51.252;7.470;2022-09-12T04:49:58;11.90;99.90
27439;DHT22;14887;51.252;7.470;2022-09-12T04:52:24;11.90;99.90
27439;DHT22;14887;51.252;7.470;2022-09-12T04:54:49;11.90;99.90
27439;DHT22;14887;51.252;7.470;2022-09-12T04:57:15;11.90;99.90
27439;DHT22;14887;51.252;7.470;2022-09-12T04:59:40;11.90;99.90
27439;DHT22;14887;51.252;7.470;2022-09-12T05:02:06;11.90;99.90
27439;DHT22;14887;51.252;7.470;2022-09-12T05:04:31;11.90;99.90
27439;DHT22;14887;51.252;7.470;2022-09-12T05:06:57;11.90;99.90
27439;DHT22;14887;51.252;7.470;2022-09-12T05:09:23;11.90;99.90
27439;DHT22;14887;51.252;7.470;2022-09-12T05:11:48;11.90;99.90
27439;DHT22;14887;51.252;7.470;2022-09-12T05:14:14;11.90;99.90
27439;DHT22;14887;51.252;7.470;2022-09-12T05:16:39;11.90;99.90
27439;DHT22;14887;51.252;7.470;2022-09-12T05:19:06;12.00;99.90
27439;DHT22;14887;51.252;7.470;2022-09-12T05:21:31;12.10;99.90
27439;DHT22;14887;51.252;7.470;2022-09-12T05:23:57;12.20;99.90
27439;DHT22;14887;51.252;7.470;2022-09-12T05:26:26;12.30;99.90
27439;DHT22;14887;51.252;7.470;2022-09-12T05:28:53;12.40;99.90
27439;DHT22;14887;51.252;7.470;2022-09-12T05:31:21;12.40;99.90
27439;DHT22;14887;51.252;7.470;2022-09-12T05:33:48;12.40;99.90
27439;DHT22;14887;51.252;7.470;2022-09-12T05:36:23;12.40;99.90
27439;DHT22;14887;51.252;7.470;2022-09-12T05:38:49;12.50;99.90
27439;DHT22;14887;51.252;7.470;2022-09-12T05:41:23;12.50;99.90
27439;DHT22;14887;51.252;7.470;2022-09-12T05:43:57;12.50;99.90
27439;DHT22;14887;51.252;7.470;2022-09-12T05:46:27;12.50;99.90
27439;DHT22;14887;51.252;7.470;2022-09-12T05:48:54;12.60;99.90
27439;DHT22;14887;51.252;7.470;2022-09-12T05:51:23;12.70;99.90
27439;DHT22;14887;51.252;7.470;2022-09-12T05:53:52;12.60;99.90
27439;DHT22;14887;51.252;7.470;2022-09-12T05:56:19;12.70;99.90
27439;DHT22;14887;51.252;7.470;2022-09-12T05:58:47;12.80;99.90
27439;DHT22;14887;51.252;7.470;2022-09-12T06:01:17;12.90;99.90
27439;DHT22;14887;51.252;7.470;2022-09-12T06:03:49;13.00;99.90
27439;DHT22;14887;51.252;7.470;2022-09-12T06:06:18;13.10;99.90
27439;DHT22;14887;51.252;7.470;2022-09-12T06:08:46;13.30;99.90
27439;DHT22;14887;51.252;7.470;2022-09-12T06:11:16;13.60;99.90
27439;DHT22;14887;51.252;7.470;2022-09-12T06:13:42;14.30;99.90
27439;DHT22;14887;51.252;7.470;2022-09-12T06:16:14;14.90;99.90
27439;DHT22;14887;51.252;7.470;2022-09-12T06:18:41;15.40;99.90
27439;DHT22;14887;51.252;7.470;2022-09-12T06:21:11;16.10;99.90
27439;DHT22;14887;51.252;7.470;2022-09-12T06:23:38;17.00;99.90
27439;DHT22;14887;51.252;7.470;2022-09-12T06:26:06;17.70;99.90
27439;DHT22;14887;51.252;7.470;2022-09-12T06:28:33;18.20;99.90
27439;DHT22;14887;51.252;7.470;2022-09-12T06:31:08;18.60;99.90
27439;DHT22;14887;51.252;7.470;2022-09-12T06:33:37;18.90;99.90
27439;DHT22;14887;51.252;7.470;2022-09-12T06:36:15;18.80;99.90
27439;DHT22;14887;51.252;7.470;2022-09-12T06:38:41;18.20;99.90
27439;DHT22;14887;51.252;7.470;2022-09-12T06:41:09;17.50;99.90
27439;DHT22;14887;51.252;7.470;2022-09-12T06:43:37;16.90;99.90
27439;DHT22;14887;51.252;7.470;2022-09-12T06:46:03;16.50;99.90
27439;DHT22;14887;51.252;7.470;2022-09-12T06:48:28;16.10;99.90
27439;DHT22;14887;51.252;7.470;2022-09-12T06:51:02;15.80;99.90
27439;DHT22;14887;51.252;7.470;2022-09-12T06:53:29;15.70;99.90
27439;DHT22;14887;51.252;7.470;2022-09-12T06:56:03;15.70;99.90
27439;DHT22;14887;51.252;7.470;2022-09-12T06:58:30;15.90;99.90
27439;DHT22;14887;51.252;7.470;2022-09-12T07:01:48;16.70;99.90
27439;DHT22;14887;51.252;7.470;2022-09-12T07:03:57;18.10;99.90
27439;DHT22;14887;51.252;7.470;2022-09-12T07:06:26;19.70;99.90
27439;DHT22;14887;51.252;7.470;2022-09-12T07:09:00;20.80;99.90
27439;DHT22;14887;51.252;7.470;2022-09-12T07:11:31;21.30;1.00
27439;DHT22;14887;51.252;7.470;2022-09-12T07:13:58;21.60;99.90
27439;DHT22;14887;51.252;7.470;2022-09-12T07:16:24;21.50;99.90
27439;DHT22;14887;51.252;7.470;2022-09-12T07:18:57;21.50;1.00
27439;DHT22;14887;51.252;7.470;2022-09-12T07:21:24;21.80;99.90
27439;DHT22;14887;51.252;7.470;2022-09-12T07:23:50;21.90;99.90
27439;DHT22;14887;51.252;7.470;2022-09-12T07:26:23;22.10;99.90
27439;DHT22;14887;51.252;7.470;2022-09-12T07:28:52;22.10;99.90
27439;DHT22;14887;51.252;7.470;2022-09-12T07:31:20;22.30;99.90
27439;DHT22;14887;51.252;7.470;2022-09-12T07:33:47;22.20;99.90
27439;DHT22;14887;51.252;7.470;2022-09-12T07:36:16;21.90;99.90
27439;DHT22;14887;51.252;7.470;2022-09-12T07:38:42;21.60;1.00
27439;DHT22;14887;51.252;7.470;2022-09-12T07:43:37;20.30;1.00
27439;DHT22;14887;51.252;7.470;2022-09-12T07:46:02;19.90;1.00
27439;DHT22;14887;51.252;7.470;2022-09-12T07:48:28;19.70;99.90
27439;DHT22;14887;51.252;7.470;2022-09-12T07:50:58;19.60;99.90
27439;DHT22;14887;51.252;7.470;2022-09-12T07:53:32;19.50;99.90
27439;DHT22;14887;51.252;7.470;2022-09-12T07:55:58;19.30;1.00
27439;DHT22;14887;51.252;7.470;2022-09-12T07:58:24;19.00;1.00
27439;DHT22;14887;51.252;7.470;2022-09-12T08:00:50;19.00;99.90
27439;DHT22;14887;51.252;7.470;2022-09-12T08:03:16;18.90;99.90
27439;DHT22;14887;51.252;7.470;2022-09-12T08:05:41;18.70;99.90
27439;DHT22;14887;51.252;7.470;2022-09-12T08:08:07;18.60;99.90
27439;DHT22;14887;51.252;7.470;2022-09-12T08:10:34;18.50;99.90
27439;DHT22;14887;51.252;7.470;2022-09-12T08:12:59;18.70;99.90
27439;DHT22;14887;51.252;7.470;2022-09-12T08:15:25;18.70;99.90
27439;DHT22;14887;51.252;7.470;2022-09-12T08:17:50;18.80;99.90
27439;DHT22;14887;51.252;7.470;2022-09-12T08:20:16;18.80;99.90
27439;DHT22;14887;51.252;7.470;2022-09-12T08:22:42;18.60;99.90
27439;DHT22;14887;51.252;7.470;2022-09-12T08:25:08;18.60;99.90
27439;DHT22;14887;51.252;7.470;2022-09-12T08:27:34;18.60;99.90
27439;DHT22;14887;51.252;7.470;2022-09-12T08:30:00;18.70;99.90
27439;DHT22;14887;51.252;7.470;2022-09-12T08:32:25;18.70;99.90
27439;DHT22;14887;51.252;7.470;2022-09-12T08:34:51;18.80;17.10
27439;DHT22;14887;51.252;7.470;2022-09-12T08:37:16;18.90;33.90
27439;DHT22;14887;51.252;7.470;2022-09-12T08:39:42;19.10;15.30
27439;DHT22;14887;51.252;7.470;2022-09-12T08:42:09;19.30;42.20
27439;DHT22;14887;51.252;7.470;2022-09-12T08:55:28;20.00;99.90
27439;DHT22;14887;51.252;7.470;2022-09-12T08:57:56;20.10;64.90
27439;DHT22;14887;51.252;7.470;2022-09-12T09:00:21;20.60;82.70
27439;DHT22;14887;51.252;7.470;2022-09-12T09:08:29;20.30;1.00
27439;DHT22;14887;51.252;7.470;2022-09-12T09:11:07;20.20;1.00
27439;DHT22;14887;51.252;7.470;2022-09-12T09:16:47;20.20;1.00
27439;DHT22;14887;51.252;7.470;2022-09-12T09:22:02;20.40;1.00
27439;DHT22;14887;51.252;7.470;2022-09-12T09:24:35;20.40;1.00
27439;DHT22;14887;51.252;7.470;2022-09-12T09:27:08;20.70;99.90
27439;DHT22;14887;51.252;7.470;2022-09-12T09:29:35;21.00;1.00
27439;DHT22;14887;51.252;7.470;2022-09-12T09:32:11;21.20;99.90
27439;DHT22;14887;51.252;7.470;2022-09-12T09:34:39;21.40;99.90
27439;DHT22;14887;51.252;7.470;2022-09-12T09:37:27;21.60;99.90
27439;DHT22;14887;51.252;7.470;2022-09-12T09:40:05;21.70;99.90
27439;DHT22;14887;51.252;7.470;2022-09-12T09:44:59;21.50;1.00
27439;DHT22;14887;51.252;7.470;2022-09-12T09:47:27;21.80;99.90
27439;DHT22;14887;51.252;7.470;2022-09-12T09:49:52;22.10;99.90
27439;DHT22;14887;51.252;7.470;2022-09-12T09:52:24;21.90;99.90
27439;DHT22;14887;51.252;7.470;2022-09-12T09:54:58;21.40;99.90
27439;DHT22;14887;51.252;7.470;2022-09-12T10:00:26;20.80;1.00
27439;DHT22;14887;51.252;7.470;2022-09-12T10:05:50;21.20;1.00
27439;DHT22;14887;51.252;7.470;2022-09-12T10:16:48;21.30;99.90
27439;DHT22;14887;51.252;7.470;2022-09-12T10:19:21;21.20;1.00
27439;DHT22;14887;51.252;7.470;2022-09-12T10:21:54;21.40;99.90
27439;DHT22;14887;51.252;7.470;2022-09-12T10:27:50;21.50;99.90
27439;DHT22;14887;51.252;7.470;2022-09-12T10:32:41;21.90;99.90
27439;DHT22;14887;51.252;7.470;2022-09-12T10:35:17;21.90;29.20
27439;DHT22;14887;51.252;7.470;2022-09-12T10:40:26;21.50;1.00
27439;DHT22;14887;51.252;7.470;2022-09-12T10:42:57;21.40;1.00
27439;DHT22;14887;51.252;7.470;2022-09-12T10:47:54;21.60;99.90
27439;DHT22;14887;51.252;7.470;2022-09-12T10:50:48;21.60;4.20
27439;DHT22;14887;51.252;7.470;2022-09-12T10:53:27;21.80;1.00
27439;DHT22;14887;51.252;7.470;2022-09-12T10:56:09;21.90;1.00
27439;DHT22;14887;51.252;7.470;2022-09-12T11:07:12;21.60;1.00
27439;DHT22;14887;51.252;7.470;2022-09-12T11:16:07;21.70;1.00
27439;DHT22;14887;51.252;7.470;2022-09-12T11:18:53;22.00;1.00
27439;DHT22;14887;51.252;7.470;2022-09-12T11:21:38;22.00;1.00
27439;DHT22;14887;51.252;7.470;2022-09-12T11:24:32;21.80;1.00
27439;DHT22;14887;51.252;7.470;2022-09-12T11:27:45;21.90;1.00
27439;DHT22;14887;51.252;7.470;2022-09-12T11:30:15;21.70;1.00
27439;DHT22;14887;51.252;7.470;2022-09-12T11:32:59;21.60;1.00
27439;DHT22;14887;51.252;7.470;2022-09-12T11:35:31;21.70;1.00
27439;DHT22;14887;51.252;7.470;2022-09-12T11:38:13;21.70;1.00
27439;DHT22;14887;51.252;7.470;2022-09-12T11:40:54;21.90;1.00
27439;DHT22;14887;51.252;7.470;2022-09-12T11:43:47;22.00;1.00
27439;DHT22;14887;51.252;7.470;2022-09-12T11:57:22;22.40;1.00
27439;DHT22;14887;51.252;7.470;2022-09-12T12:02:30;22.50;1.00
27439;DHT22;14887;51.252;7.470;2022-09-12T12:05:24;22.70;1.00
27439;DHT22;14887;51.252;7.470;2022-09-12T12:07:59;22.70;1.00
27439;DHT22;14887;51.252;7.470;2022-09-12T12:10:35;22.90;1.00
27439;DHT22;14887;51.252;7.470;2022-09-12T12:13:05;23.00;1.00
27439;DHT22;14887;51.252;7.470;2022-09-12T12:15:35;23.00;1.00
27439;DHT22;14887;51.252;7.470;2022-09-12T12:18:07;22.60;99.90
27439;DHT22;14887;51.252;7.470;2022-09-12T12:20:39;22.20;99.90
27439;DHT22;14887;51.252;7.470;2022-09-12T12:23:05;22.30;1.00
27439;DHT22;14887;51.252;7.470;2022-09-12T12:25:40;22.50;1.00
27439;DHT22;14887;51.252;7.470;2022-09-12T12:31:03;23.10;99.90
27439;DHT22;14887;51.252;7.470;2022-09-12T12:38:35;23.50;99.90
27439;DHT22;14887;51.252;7.470;2022-09-12T12:43:46;23.90;99.90
27439;DHT22;14887;51.252;7.470;2022-09-12T12:46:19;24.20;99.90
27439;DHT22;14887;51.252;7.470;2022-09-12T12:53:54;24.40;99.90
27439;DHT22;14887;51.252;7.470;2022-09-12T12:59:05;25.10;99.90
27439;DHT22;14887;51.252;7.470;2022-09-12T13:01:44;25.50;99.90
27439;DHT22;14887;51.252;7.470;2022-09-12T13:04:15;25.40;99.90
27439;DHT22;14887;51.252;7.470;2022-09-12T13:06:46;25.60;99.90
27439;DHT22;14887;51.252;7.470;2022-09-12T13:09:24;25.90;99.90
27439;DHT22;14887;51.252;7.470;2022-09-12T13:12:02;26.00;99.90
27439;DHT22;14887;51.252;7.470;2022-09-12T13:17:15;26.00;99.90
27439;DHT22;14887;51.252;7.470;2022-09-12T13:19:43;26.20;99.90
27439;DHT22;14887;51.252;7.470;2022-09-12T13:22:10;26.70;99.90
27439;DHT22;14887;51.252;7.470;2022-09-12T13:24:43;27.60;99.90
27439;DHT22;14887;51.252;7.470;2022-09-12T13:27:20;28.10;99.90
27439;DHT22;14887;51.252;7.470;2022-09-12T13:29:46;28.60;99.90
27439;DHT22;14887;51.252;7.470;2022-09-12T13:32:12;28.90;99.90
27439;DHT22;14887;51.252;7.470;2022-09-12T13:34:49;29.10;99.90
27439;DHT22;14887;51.252;7.470;2022-09-12T13:40:28;30.40;99.90
27439;DHT22;14887;51.252;7.470;2022-09-12T13:43:14;30.80;99.90
27439;DHT22;14887;51.252;7.470;2022-09-12T13:45:40;30.90;99.90
27439;DHT22;14887;51.252;7.470;2022-09-12T13:48:12;30.80;99.90
27439;DHT22;14887;51.252;7.470;2022-09-12T13:50:45;30.90;99.90
27439;DHT22;14887;51.252;7.470;2022-09-12T13:53:18;30.40;99.90
27439;DHT22;14887;51.252;7.470;2022-09-12T13:55:46;30.10;99.90
27439;DHT22;14887;51.252;7.470;2022-09-12T13:58:28;29.80;99.90
27439;DHT22;14887;51.252;7.470;2022-09-12T14:01:05;30.20;99.90
27439;DHT22;14887;51.252;7.470;2022-09-12T14:06:51;31.10;99.90
27439;DHT22;14887;51.252;7.470;2022-09-12T14:09:26;31.10;99.90
27439;DHT22;14887;51.252;7.470;2022-09-12T14:11:54;31.00;99.90
27439;DHT22;14887;51.252;7.470;2022-09-12T14:16:57;31.10;99.90
27439;DHT22;14887;51.252;7.470;2022-09-12T14:19:23;31.10;99.90
27439;DHT22;14887;51.252;7.470;2022-09-12T14:21:52;30.80;99.90
27439;DHT22;14887;51.252;7.470;2022-09-12T14:24:18;31.10;99.90
27439;DHT22;14887;51.252;7.470;2022-09-12T14:26:45;31.10;99.90
27439;DHT22;14887;51.252;7.470;2022-09-12T14:29:14;30.80;99.90
27439;DHT22;14887;51.252;7.470;2022-09-12T14:31:41;30.60;99.90
27439;DHT22;14887;51.252;7.470;2022-09-12T14:34:13;30.40;99.90
27439;DHT22;14887;51.252;7.470;2022-09-12T14:36:45;30.20;99.90
27439;DHT22;14887;51.252;7.470;2022-09-12T14:39:31;30.20;99.90
27439;DHT22;14887;51.252;7.470;2022-09-12T14:42:18;30.50;99.90
27439;DHT22;14887;51.252;7.470;2022-09-12T14:44:57;30.50;99.90
27439;DHT22;14887;51.252;7.470;2022-09-12T14:47:26;30.40;99.90
27439;DHT22;14887;51.252;7.470;2022-09-12T14:49:52;30.20;99.90
27439;DHT22;14887;51.252;7.470;2022-09-12T14:52:32;30.40;99.90
27439;DHT22;14887;51.252;7.470;2022-09-12T14:55:19;30.70;99.90
27439;DHT22;14887;51.252;7.470;2022-09-12T14:58:15;30.90;99.90
27439;DHT22;14887;51.252;7.470;2022-09-12T15:01:22;31.00;99.90
27439;DHT22;14887;51.252;7.470;2022-09-12T15:03:51;30.90;99.90
27439;DHT22;14887;51.252;7.470;2022-09-12T15:06:29;30.80;99.90
27439;DHT22;14887;51.252;7.470;2022-09-12T15:08:58;30.40;99.90
27439;DHT22;14887;51.252;7.470;2022-09-12T15:11:24;29.60;99.90
27439;DHT22;14887;51.252;7.470;2022-09-12T15:13:50;29.80;99.90
27439;DHT22;14887;51.252;7.470;2022-09-12T15:16:16;30.10;99.90
27439;DHT22;14887;51.252;7.470;2022-09-12T15:18:42;30.60;99.90
27439;DHT22;14887;51.252;7.470;2022-09-12T15:21:12;31.10;99.90
27439;DHT22;14887;51.252;7.470;2022-09-12T15:23:46;31.30;99.90
27439;DHT22;14887;51.252;7.470;2022-09-12T15:26:17;30.90;99.90
27439;DHT22;14887;51.252;7.470;2022-09-12T15:28:43;30.20;99.90
27439;DHT22;14887;51.252;7.470;2022-09-12T15:31:23;29.90;99.90
27439;DHT22;14887;51.252;7.470;2022-09-12T15:33:49;29.20;99.90
27439;DHT22;14887;51.252;7.470;2022-09-12T15:36:17;28.60;99.90
27439;DHT22;14887;51.252;7.470;2022-09-12T15:38:43;28.40;99.90
27439;DHT22;14887;51.252;7.470;2022-09-12T15:41:11;28.30;99.90
27439;DHT22;14887;51.252;7.470;2022-09-12T15:43:37;28.30;99.90
27439;DHT22;14887;51.252;7.470;2022-09-12T15:46:03;28.40;99.90
27439;DHT22;14887;51.252;7.470;2022-09-12T15:48:31;27.90;99.90
27439;DHT22;14887;51.252;7.470;2022-09-12T15:50:56;27.60;99.90
27439;DHT22;14887;51.252;7.470;2022-09-12T15:53:26;27.30;99.90
27439;DHT22;14887;51.252;7.470;2022-09-12T15:55:52;26.90;99.90
27439;DHT22;14887;51.252;7.470;2022-09-12T15:58:18;26.60;99.90
27439;DHT22;14887;51.252;7.470;2022-09-12T16:00:43;26.40;99.90
27439;DHT22;14887;51.252;7.470;2022-09-12T16:03:19;26.10;99.90
27439;DHT22;14887;51.252;7.470;2022-09-12T16:05:46;26.20;99.90
27439;DHT22;14887;51.252;7.470;2022-09-12T16:08:11;26.00;99.90
27439;DHT22;14887;51.252;7.470;2022-09-12T16:10:37;26.10;99.90
27439;DHT22;14887;51.252;7.470;2022-09-12T16:13:03;25.90;99.90
27439;DHT22;14887;51.252;7.470;2022-09-12T16:15:28;26.00;99.90
27439;DHT22;14887;51.252;7.470;2022-09-12T16:17:54;26.20;99.90
27439;DHT22;14887;51.252;7.470;2022-09-12T16:20:20;26.50;99.90
27439;DHT22;14887;51.252;7.470;2022-09-12T16:22:48;26.80;99.90
27439;DHT22;14887;51.252;7.470;2022-09-12T16:25:13;26.80;99.90
27439;DHT22;14887;51.252;7.470;2022-09-12T16:27:39;26.80;99.90
27439;DHT22;14887;51.252;7.470;2022-09-12T16:30:05;26.50;99.90
27439;DHT22;14887;51.252;7.470;2022-09-12T16:32:31;26.30;99.90
27439;DHT22;14887;51.252;7.470;2022-09-12T16:34:57;26.00;99.90
27439;DHT22;14887;51.252;7.470;2022-09-12T16:37:23;25.50;99.90
27439;DHT22;14887;51.252;7.470;2022-09-12T16:39:48;24.90;99.90
27439;DHT22;14887;51.252;7.470;2022-09-12T16:42:17;24.10;99.90
27439;DHT22;14887;51.252;7.470;2022-09-12T16:44:44;23.60;99.90
27439;DHT22;14887;51.252;7.470;2022-09-12T16:47:10;23.50;99.90
27439;DHT22;14887;51.252;7.470;2022-09-12T16:49:36;23.40;99.90
27439;DHT22;14887;51.252;7.470;2022-09-12T16:52:02;23.60;99.90
27439;DHT22;14887;51.252;7.470;2022-09-12T16:54:27;23.90;99.90
27439;DHT22;14887;51.252;7.470;2022-09-12T16:56:53;24.50;99.90
27439;DHT22;14887;51.252;7.470;2022-09-12T16:59:18;24.40;99.90
27439;DHT22;14887;51.252;7.470;2022-09-12T17:01:44;24.40;99.90
27439;DHT22;14887;51.252;7.470;2022-09-12T17:04:10;24.30;99.90
27439;DHT22;14887;51.252;7.470;2022-09-12T17:06:36;24.00;99.90
27439;DHT22;14887;51.252;7.470;2022-09-12T17:09:03;24.00;99.90
27439;DHT22;14887;51.252;7.470;2022-09-12T17:11:34;23.90;99.90
27439;DHT22;14887;51.252;7.470;2022-09-12T17:14:03;24.00;99.90
27439;DHT22;14887;51.252;7.470;2022-09-12T17:16:31;24.10;99.90
27439;DHT22;14887;51.252;7.470;2022-09-12T17:18:57;24.00;99.90
27439;DHT22;14887;51.252;7.470;2022-09-12T17:21:22;23.70;99.90
27439;DHT22;14887;51.252;7.470;2022-09-12T17:23:48;23.20;99.90
27439;DHT22;14887;51.252;7.470;2022-09-12T17:26:14;22.80;99.90
27439;DHT22;14887;51.252;7.470;2022-09-12T17:28:40;22.20;99.90
27439;DHT22;14887;51.252;7.470;2022-09-12T17:31:08;21.90;99.90
27439;DHT22;14887;51.252;7.470;2022-09-12T17:33:35;21.60;99.90
27439;DHT22;14887;51.252;7.470;2022-09-12T17:36:03;21.40;99.90
27439;DHT22;14887;51.252;7.470;2022-09-12T17:38:33;21.00;1.00
27439;DHT22;14887;51.252;7.470;2022-09-12T17:41:10;20.70;1.00
27439;DHT22;14887;51.252;7.470;2022-09-12T17:43:36;20.40;1.00
27439;DHT22;14887;51.252;7.470;2022-09-12T17:46:03;20.20;1.00
27439;DHT22;14887;51.252;7.470;2022-09-12T17:48:29;20.00;1.00
27439;DHT22;14887;51.252;7.470;2022-09-12T17:50:54;19.80;1.00
27439;DHT22;14887;51.252;7.470;2022-09-12T17:53:20;19.70;94.10
27439;DHT22;14887;51.252;7.470;2022-09-12T17:55:45;19.60;68.50
27439;DHT22;14887;51.252;7.470;2022-09-12T17:58:12;19.50;17.90
27439;DHT22;14887;51.252;7.470;2022-09-12T18:00:37;19.40;99.90
27439;DHT22;14887;51.252;7.470;2022-09-12T18:03:23;19.30;99.90
27439;DHT22;14887;51.252;7.470;2022-09-12T18:05:51;19.10;99.90
27439;DHT22;14887;51.252;7.470;2022-09-12T18:08:18;19.10;99.90
27439;DHT22;14887;51.252;7.470;2022-09-12T18:10:43;19.00;1.00
27439;DHT22;14887;51.252;7.470;2022-09-12T18:13:09;18.90;99.90
27439;DHT22;14887;51.252;7.470;2022-09-12T18:15:35;18.80;1.00
27439;DHT22;14887;51.252;7.470;2022-09-12T18:18:01;18.90;99.90
27439;DHT22;14887;51.252;7.470;2022-09-12T18:20:27;18.90;1.00